createdAt,value
2023-04-01T00:01:59.872Z,79.20
2023-04-01T00:05:02.497Z,79.20
2023-04-01T00:08:04.203Z,79.30
2023-04-01T00:11:06.082Z,79.60
2023-04-01T00:14:08.553Z,79.30
2023-04-01T00:17:10.347Z,78.70
2023-04-01T00:20:13.219Z,79.00
2023-04-01T00:23:15.407Z,78.60
2023-04-01T00:26:19.935Z,78.30
2023-04-01T00:29:21.893Z,78.70
2023-04-01T00:32:23.513Z,78.80
2023-04-01T00:35:25.244Z,78.50
2023-04-01T00:38:26.809Z,78.50
2023-04-01T00:41:28.955Z,78.40
2023-04-01T00:44:33.741Z,78.30
2023-04-01T00:47:35.505Z,78.40
2023-04-01T00:50:39.569Z,78.60
2023-04-01T00:53:45.140Z,78.30
2023-04-01T00:56:52.149Z,78.30
2023-04-01T00:59:55.752Z,78.50
2023-04-01T01:02:57.368Z,78.60
2023-04-01T01:06:34.742Z,78.30
2023-04-01T01:10:01.372Z,78.70
2023-04-01T01:13:11.561Z,78.30
2023-04-01T01:16:46.876Z,78.70
2023-04-01T01:20:10.050Z,78.50
2023-04-01T01:23:39.450Z,78.90
2023-04-01T01:26:54.824Z,78.60
2023-04-01T01:30:11.695Z,78.80
2023-04-01T01:33:33.813Z,78.70
2023-04-01T01:36:35.791Z,78.90
2023-04-01T01:39:39.588Z,79.10
2023-04-01T01:42:46.339Z,78.80
2023-04-01T01:45:53.339Z,78.90
2023-04-01T01:48:56.876Z,79.10
2023-04-01T01:51:58.709Z,79.10
2023-04-01T01:55:00.544Z,79.20
2023-04-01T01:58:18.748Z,79.00
2023-04-01T02:01:30.588Z,79.40
2023-04-01T02:04:32.633Z,79.40
2023-04-01T02:07:38.326Z,79.40
2023-04-01T02:10:44.255Z,79.40
2023-04-01T02:14:08.797Z,79.50
2023-04-01T02:17:17.577Z,79.60
2023-04-01T02:20:23.340Z,80.10
2023-04-01T02:23:25.095Z,79.90
2023-04-01T02:26:27.430Z,80.20
2023-04-01T02:29:29.147Z,80.60
2023-04-01T02:32:33.218Z,80.80
2023-04-01T02:35:37.719Z,80.70
2023-04-01T02:38:39.810Z,81.20
2023-04-01T02:41:43.728Z,81.70
2023-04-01T02:44:45.743Z,81.80
2023-04-01T02:47:47.463Z,81.70
2023-04-01T02:50:50.337Z,82.10
2023-04-01T02:53:51.915Z,82.30
2023-04-01T02:56:53.548Z,82.20
2023-04-01T02:59:55.398Z,82.10
2023-04-01T03:02:57.748Z,82.10
2023-04-01T03:06:01.037Z,81.80
2023-04-01T03:09:03.483Z,81.70
2023-04-01T03:12:05.675Z,81.50
2023-04-01T03:15:11.166Z,81.30
2023-04-01T03:18:13.188Z,81.30
2023-04-01T03:21:20.511Z,81.20
2023-04-01T03:24:22.142Z,81.20
2023-04-01T03:27:24.226Z,81.40
2023-04-01T03:30:25.964Z,81.40
2023-04-01T03:33:27.553Z,81.50
2023-04-01T03:36:29.224Z,81.60
2023-04-01T03:39:32.098Z,81.50
2023-04-01T03:42:33.912Z,81.50
2023-04-01T03:45:35.857Z,81.50
2023-04-01T03:48:37.721Z,81.70
2023-04-01T03:51:41.028Z,81.50
2023-04-01T03:54:42.579Z,81.50
2023-04-01T03:57:44.415Z,81.70
2023-04-01T04:00:46.168Z,81.70
2023-04-01T04:03:49.960Z,81.60
2023-04-01T04:06:52.177Z,81.80
2023-04-01T04:09:53.712Z,81.50
2023-04-01T04:12:55.476Z,81.10
2023-04-01T04:15:57.065Z,81.20
2023-04-01T04:18:58.690Z,80.80
2023-04-01T04:22:02.263Z,80.90
2023-04-01T04:25:04.087Z,80.70
2023-04-01T04:28:05.720Z,80.70
2023-04-01T04:31:08.562Z,80.80
2023-04-01T04:34:10.230Z,80.30
2023-04-01T04:37:11.836Z,80.40
2023-04-01T04:40:13.650Z,80.40
2023-04-01T04:43:16.962Z,80.20
2023-04-01T04:46:18.854Z,80.10
2023-04-01T04:49:20.655Z,79.80
2023-04-01T04:52:22.183Z,79.80
2023-04-01T04:55:23.721Z,79.70
2023-04-01T04:58:25.290Z,80.10
2023-04-01T05:01:26.933Z,79.80
2023-04-01T05:04:28.585Z,79.90
2023-04-01T05:07:30.303Z,79.50
2023-04-01T05:10:32.380Z,79.70
2023-04-01T05:13:33.932Z,80.00
2023-04-01T05:16:35.541Z,80.10
2023-04-01T05:19:37.281Z,80.40
2023-04-01T05:22:38.843Z,80.60
2023-04-01T05:25:40.435Z,81.20
2023-04-01T05:28:42.124Z,81.10
2023-04-01T05:31:43.672Z,81.30
2023-04-01T05:34:45.366Z,81.50
2023-04-01T05:37:46.936Z,81.90
2023-04-01T05:40:48.630Z,81.70
2023-04-01T05:43:50.742Z,81.90
2023-04-01T05:46:52.323Z,81.80
2023-04-01T05:49:53.897Z,81.60
2023-04-01T05:52:55.641Z,81.10
2023-04-01T05:55:57.199Z,81.00
2023-04-01T05:58:58.756Z,80.80
2023-04-01T06:02:00.364Z,80.70
2023-04-01T06:05:18.519Z,80.80
2023-04-01T06:08:20.872Z,80.70
2023-04-01T06:11:37.944Z,80.40
2023-04-01T06:15:07.127Z,80.10
2023-04-01T06:18:43.844Z,80.40
2023-04-01T06:22:15.274Z,79.90
2023-04-01T06:25:23.638Z,79.70
2023-04-01T06:28:55.921Z,80.20
2023-04-01T06:32:05.184Z,79.70
2023-04-01T06:35:22.994Z,79.90
2023-04-01T06:38:38.971Z,79.60
2023-04-01T06:42:19.040Z,79.70
2023-04-01T06:45:34.369Z,79.10
2023-04-01T06:49:05.058Z,79.10
2023-04-01T06:52:23.446Z,79.50
2023-04-01T06:55:42.810Z,79.50
2023-04-01T06:58:56.839Z,79.50
2023-04-01T07:02:25.252Z,79.90
2023-04-01T07:05:32.622Z,79.90
2023-04-01T07:08:38.864Z,80.00
2023-04-01T07:11:41.337Z,79.60
2023-04-01T07:14:43.796Z,80.20
2023-04-01T07:17:49.281Z,79.90
2023-04-01T07:20:52.849Z,79.60
2023-04-01T07:23:57.743Z,79.80
2023-04-01T07:27:00.108Z,79.90
2023-04-01T07:30:03.008Z,79.50
2023-04-01T07:33:18.753Z,79.40
2023-04-01T07:36:36.023Z,79.70
2023-04-01T07:40:07.122Z,79.70
2023-04-01T07:43:36.795Z,80.00
2023-04-01T07:46:50.131Z,79.20
2023-04-01T07:50:28.504Z,79.00
2023-04-01T07:53:42.553Z,79.30
2023-04-01T07:57:01.127Z,78.80
2023-04-01T08:00:14.640Z,78.70
2023-04-01T08:03:50.584Z,77.90
2023-04-01T08:07:02.025Z,78.30
2023-04-01T08:10:17.772Z,78.60
2023-04-01T08:13:45.181Z,78.10
2023-04-01T08:17:16.127Z,78.10
2023-04-01T08:20:27.305Z,78.50
2023-04-01T08:23:34.704Z,78.90
2023-04-01T08:26:42.139Z,79.40
2023-04-01T08:30:05.770Z,80.20
2023-04-01T08:33:34.100Z,80.70
2023-04-01T08:36:41.851Z,81.40
2023-04-01T08:39:58.245Z,82.20
2023-04-01T08:43:14.129Z,82.50
2023-04-01T08:46:56.798Z,82.90
2023-04-01T08:50:19.961Z,84.20
2023-04-01T08:53:55.770Z,83.40
2023-04-01T08:57:22.847Z,83.70
2023-04-01T09:00:30.331Z,83.40
2023-04-01T09:03:59.500Z,83.00
2023-04-01T09:07:36.736Z,84.10
2023-04-01T09:11:13.264Z,84.50
2023-04-01T09:14:29.882Z,84.00
2023-04-01T09:18:07.359Z,84.80
2023-04-01T09:21:31.850Z,84.90
2023-04-01T09:24:57.227Z,85.50
2023-04-01T09:28:14.509Z,85.30
2023-04-01T09:31:43.924Z,85.90
2023-04-01T09:35:06.455Z,86.10
2023-04-01T09:38:21.082Z,87.20
2023-04-01T09:42:04.274Z,87.10
2023-04-01T09:45:32.345Z,87.40
2023-04-01T09:48:55.734Z,88.10
2023-04-01T09:52:27.654Z,88.70
2023-04-01T09:56:10.025Z,89.10
2023-04-01T09:59:29.449Z,88.70
2023-04-01T10:02:43.160Z,89.30
2023-04-01T10:06:26.065Z,89.90
2023-04-01T10:10:05.931Z,90.50
2023-04-01T10:13:07.511Z,90.20
2023-04-01T10:16:36.033Z,89.90
2023-04-01T10:20:06.450Z,90.20
2023-04-01T10:23:42.263Z,90.20
2023-04-01T10:27:21.153Z,90.10
2023-04-01T10:30:52.381Z,89.30
2023-04-01T10:34:28.976Z,89.30
2023-04-01T10:37:52.927Z,89.30
2023-04-01T10:41:16.378Z,88.90
2023-04-01T10:44:49.031Z,87.20
2023-04-01T10:48:28.387Z,87.80
2023-04-01T10:51:51.218Z,88.00
2023-04-01T10:55:48.103Z,87.90
2023-04-01T10:59:20.571Z,88.60
2023-04-01T11:02:56.782Z,88.50
2023-04-01T11:06:44.604Z,88.90
2023-04-01T11:10:05.249Z,88.50
2023-04-01T11:13:29.132Z,88.40
2023-04-01T11:16:45.677Z,87.20
2023-04-01T11:20:16.166Z,88.00
2023-04-01T11:23:30.399Z,89.00
2023-04-01T11:26:57.908Z,88.70
2023-04-01T11:30:04.944Z,88.90
2023-04-01T11:33:53.868Z,88.70
2023-04-01T11:37:28.628Z,88.80
2023-04-01T11:41:03.701Z,89.10
2023-04-01T11:44:14.369Z,89.80
2023-04-01T11:47:57.772Z,90.20
2023-04-01T11:51:27.114Z,89.50
2023-04-01T11:54:47.061Z,90.30
2023-04-01T11:58:30.254Z,90.10
2023-04-01T12:02:06.440Z,91.00
2023-04-01T12:05:35.571Z,91.60
2023-04-01T12:08:55.631Z,91.30
2023-04-01T12:12:36.678Z,91.20
2023-04-01T12:15:49.503Z,90.40
2023-04-01T12:18:53.979Z,90.80
2023-04-01T12:22:26.187Z,90.90
2023-04-01T12:25:31.341Z,90.40
2023-04-01T12:28:46.842Z,90.30
2023-04-01T12:31:48.364Z,89.10
2023-04-01T12:35:03.395Z,88.20
2023-04-01T12:38:43.324Z,87.50
2023-04-01T12:41:47.598Z,86.20
2023-04-01T12:45:20.332Z,85.60
2023-04-01T12:49:01.011Z,86.20
2023-04-01T12:52:12.863Z,85.20
2023-04-01T12:55:37.427Z,85.00
2023-04-01T12:58:45.139Z,85.20
2023-04-01T13:02:14.793Z,85.30
2023-04-01T13:05:40.001Z,86.80
2023-04-01T13:09:09.978Z,86.10
2023-04-01T13:13:09.807Z,86.40
2023-04-01T13:16:20.271Z,86.00
2023-04-01T13:19:26.917Z,86.30
2023-04-01T13:23:01.937Z,86.20
2023-04-01T13:26:14.078Z,87.50
2023-04-01T13:29:24.439Z,86.50
2023-04-01T13:32:45.528Z,85.70
2023-04-01T13:36:19.528Z,85.60
2023-04-01T13:39:52.160Z,85.80
2023-04-01T13:43:11.127Z,85.90
2023-04-01T13:46:37.108Z,85.50
2023-04-01T13:50:16.429Z,84.60
2023-04-01T13:53:26.889Z,85.50
2023-04-01T13:57:15.393Z,85.20
2023-04-01T14:00:36.188Z,85.00
2023-04-01T14:03:43.442Z,84.30
2023-04-01T14:06:58.356Z,84.20
2023-04-01T14:10:07.287Z,84.60
2023-04-01T14:13:41.474Z,82.70
2023-04-01T14:17:01.938Z,84.00
2023-04-01T14:20:41.696Z,83.40
2023-04-01T14:24:34.846Z,81.70
2023-04-01T14:27:41.415Z,82.10
2023-04-01T14:31:17.349Z,81.60
2023-04-01T14:34:30.860Z,81.40
2023-04-01T14:37:41.178Z,80.70
2023-04-01T14:41:11.188Z,80.60
2023-04-01T14:44:22.689Z,80.50
2023-04-01T14:47:47.063Z,80.20
2023-04-01T14:50:53.272Z,81.30
2023-04-01T14:54:12.967Z,82.60
2023-04-01T14:57:25.326Z,82.70
2023-04-01T15:00:27.376Z,83.20
2023-04-01T15:03:34.906Z,82.50
2023-04-01T15:06:58.020Z,82.60
2023-04-01T15:10:26.366Z,82.90
2023-04-01T15:13:31.184Z,83.10
2023-04-01T15:16:57.482Z,83.60
2023-04-01T15:20:27.193Z,83.40
2023-04-01T15:23:55.285Z,84.60
2023-04-01T15:27:52.251Z,84.60
2023-04-01T15:30:57.602Z,82.90
2023-04-01T15:34:01.964Z,81.60
2023-04-01T15:37:20.891Z,82.60
2023-04-01T15:40:38.073Z,82.80
2023-04-01T15:43:49.594Z,81.10
2023-04-01T15:46:51.539Z,80.80
2023-04-01T15:50:17.255Z,78.50
2023-04-01T15:53:41.985Z,77.60
2023-04-01T15:57:10.388Z,77.60
2023-04-01T16:00:27.705Z,78.30
2023-04-01T16:03:53.481Z,78.00
2023-04-01T16:07:16.890Z,78.40
2023-04-01T16:10:34.814Z,76.60
2023-04-01T16:13:49.087Z,76.30
2023-04-01T16:17:18.507Z,77.70
2023-04-01T16:20:24.825Z,77.40
2023-04-01T16:23:41.315Z,77.70
2023-04-01T16:27:01.400Z,77.90
2023-04-01T16:30:28.525Z,78.40
2023-04-01T16:33:50.684Z,77.10
2023-04-01T16:37:21.307Z,77.40
2023-04-01T16:40:39.521Z,77.00
2023-04-01T16:43:48.739Z,78.00
2023-04-01T16:46:56.640Z,77.20
2023-04-01T16:50:14.391Z,77.90
2023-04-01T16:53:25.327Z,78.60
2023-04-01T16:56:40.068Z,77.40
2023-04-01T16:59:55.871Z,76.80
2023-04-01T17:03:18.437Z,76.90
2023-04-01T17:06:44.443Z,77.40
2023-04-01T17:10:16.341Z,77.00
2023-04-01T17:13:46.897Z,77.20
2023-04-01T17:17:26.635Z,77.60
2023-04-01T17:21:00.812Z,77.40
2023-04-01T17:24:29.586Z,78.50
2023-04-01T17:27:45.360Z,78.30
2023-04-01T17:30:56.917Z,78.50
2023-04-01T17:34:18.877Z,78.60
2023-04-01T17:37:41.874Z,78.90
2023-04-01T17:41:01.584Z,79.20
2023-04-01T17:44:24.471Z,78.50
2023-04-01T17:47:44.964Z,79.00
2023-04-01T17:51:08.191Z,78.70
2023-04-01T17:54:32.797Z,79.10
2023-04-01T17:57:45.904Z,78.90
2023-04-01T18:01:18.208Z,79.50
2023-04-01T18:04:27.511Z,79.30
2023-04-01T18:08:13.812Z,79.60
2023-04-01T18:11:35.834Z,79.80
2023-04-01T18:14:43.281Z,79.70
2023-04-01T18:18:14.330Z,79.60
2023-04-01T18:21:30.980Z,79.60
2023-04-01T18:24:46.998Z,79.50
2023-04-01T18:28:09.890Z,80.10
2023-04-01T18:31:21.708Z,80.20
2023-04-01T18:34:59.500Z,80.00
2023-04-01T18:38:04.075Z,80.40
2023-04-01T18:41:13.427Z,80.40
2023-04-01T18:44:27.657Z,80.90
2023-04-01T18:47:48.161Z,81.30
2023-04-01T18:51:03.243Z,81.30
2023-04-01T18:54:27.040Z,81.90
2023-04-01T18:57:48.069Z,82.50
2023-04-01T19:01:05.557Z,82.80
2023-04-01T19:04:28.387Z,83.00
2023-04-01T19:07:46.452Z,83.30
2023-04-01T19:11:10.210Z,83.20
2023-04-01T19:14:18.197Z,83.30
2023-04-01T19:17:33.198Z,83.30
2023-04-01T19:20:40.774Z,83.30
2023-04-01T19:24:20.658Z,83.50
2023-04-01T19:27:38.620Z,83.50
2023-04-01T19:31:00.714Z,83.60
2023-04-01T19:34:21.555Z,83.80
2023-04-01T19:38:02.926Z,83.90
2023-04-01T19:41:23.357Z,83.90
2023-04-01T19:44:35.972Z,84.10
2023-04-01T19:48:05.326Z,84.20
2023-04-01T19:51:26.107Z,84.00
2023-04-01T19:54:33.594Z,84.10
2023-04-01T19:57:52.070Z,84.50
2023-04-01T20:00:58.041Z,84.50
2023-04-01T20:04:11.922Z,84.50
2023-04-01T20:07:13.521Z,84.40
2023-04-01T20:10:21.457Z,84.40
2023-04-01T20:13:39.574Z,84.10
2023-04-01T20:16:59.551Z,84.20
2023-04-01T20:20:10.868Z,84.30
2023-04-01T20:23:12.412Z,84.00
2023-04-01T20:26:20.184Z,84.10
2023-04-01T20:29:47.298Z,84.30
2023-04-01T20:33:22.926Z,84.40
2023-04-01T20:36:34.252Z,84.50
2023-04-01T20:39:51.647Z,84.70
2023-04-01T20:43:15.103Z,84.60
2023-04-01T20:46:50.322Z,84.60
2023-04-01T20:50:33.875Z,84.80
2023-04-01T20:54:03.177Z,85.00
2023-04-01T20:57:12.209Z,85.00
2023-04-01T21:00:37.221Z,85.20
2023-04-01T21:04:03.914Z,85.30
2023-04-01T21:07:49.534Z,85.40
2023-04-01T21:11:03.025Z,85.60
2023-04-01T21:14:26.223Z,85.80
2023-04-01T21:17:59.688Z,85.90
2023-04-01T21:21:25.675Z,85.90
2023-04-01T21:24:57.865Z,86.00
2023-04-01T21:28:05.874Z,85.90
2023-04-01T21:31:34.727Z,86.10
2023-04-01T21:34:52.875Z,86.20
2023-04-01T21:38:22.392Z,86.30
2023-04-01T21:41:29.438Z,86.20
2023-04-01T21:45:20.119Z,86.30
2023-04-01T21:48:48.504Z,86.30
2023-04-01T21:51:58.873Z,86.30
2023-04-01T21:55:29.119Z,86.50
2023-04-01T21:59:14.352Z,86.40
2023-04-01T22:02:41.255Z,86.40
2023-04-01T22:05:45.974Z,86.50
2023-04-01T22:09:03.172Z,86.60
2023-04-01T22:12:15.976Z,86.80
2023-04-01T22:15:26.238Z,86.80
2023-04-01T22:18:49.199Z,87.20
2023-04-01T22:22:08.846Z,87.40
2023-04-01T22:25:17.377Z,87.40
2023-04-01T22:28:28.913Z,87.50
2023-04-01T22:31:44.979Z,87.40
2023-04-01T22:35:24.485Z,87.30
2023-04-01T22:38:43.041Z,87.30
2023-04-01T22:41:59.949Z,87.30
2023-04-01T22:45:24.313Z,87.20
2023-04-01T22:48:39.261Z,87.10
2023-04-01T22:51:56.502Z,87.30
2023-04-01T22:55:05.191Z,87.40
2023-04-01T22:58:11.154Z,87.30
2023-04-01T23:01:24.481Z,87.20
2023-04-01T23:04:33.074Z,87.40
2023-04-01T23:07:47.411Z,87.30
2023-04-01T23:10:56.963Z,87.20
2023-04-01T23:14:29.973Z,87.30
2023-04-01T23:18:13.720Z,87.30
2023-04-01T23:21:27.244Z,87.40
2023-04-01T23:24:41.617Z,87.50
2023-04-01T23:28:18.621Z,87.80
2023-04-01T23:31:36.400Z,88.30
2023-04-01T23:34:37.981Z,90.10
2023-04-01T23:37:39.547Z,90.80
2023-04-01T23:40:41.867Z,91.90
2023-04-01T23:43:46.085Z,92.50
2023-04-01T23:46:49.782Z,93.10
2023-04-01T23:49:59.059Z,93.90
2023-04-01T23:53:15.856Z,94.10
2023-04-01T23:56:18.951Z,95.00
2023-04-01T23:59:28.148Z,95.10
